createdAt,value
2023-04-16T00:01:27.814Z,54.54
2023-04-16T00:03:55.405Z,53.62
2023-04-16T00:06:23.193Z,54.40
2023-04-16T00:08:51.482Z,54.84
2023-04-16T00:11:18.134Z,54.78
2023-04-16T00:13:44.694Z,55.48
2023-04-16T00:16:11.368Z,55.00
2023-04-16T00:18:37.899Z,55.33
2023-04-16T00:21:04.551Z,54.87
2023-04-16T00:23:31.228Z,56.20
2023-04-16T00:25:59.968Z,55.76
2023-04-16T00:28:27.667Z,56.43
2023-04-16T00:30:54.755Z,56.56
2023-04-16T00:33:21.552Z,56.62
2023-04-16T00:35:48.901Z,56.26
2023-04-16T00:38:15.785Z,57.51
2023-04-16T00:40:42.461Z,57.19
2023-04-16T00:43:09.134Z,57.58
2023-04-16T00:45:36.460Z,57.79
2023-04-16T00:48:04.481Z,58.92
2023-04-16T00:50:31.442Z,58.78
2023-04-16T00:52:58.349Z,58.91
2023-04-16T00:55:25.996Z,58.56
2023-04-16T00:57:53.197Z,58.58
2023-04-16T01:00:21.401Z,58.09
2023-04-16T01:02:48.249Z,57.99
2023-04-16T01:05:15.029Z,58.24
2023-04-16T01:07:41.588Z,57.73
2023-04-16T01:10:08.415Z,57.98
2023-04-16T01:12:34.995Z,57.24
2023-04-16T01:15:01.897Z,57.65
2023-04-16T01:17:28.564Z,56.27
2023-04-16T01:19:59.445Z,56.75
2023-04-16T01:22:27.746Z,57.17
2023-04-16T01:24:54.364Z,56.86
2023-04-16T01:27:21.178Z,57.17
2023-04-16T01:29:47.870Z,58.15
2023-04-16T01:32:19.219Z,58.72
2023-04-16T01:34:46.904Z,57.97
2023-04-16T01:37:13.799Z,58.04
2023-04-16T01:39:40.488Z,57.70
2023-04-16T01:42:08.133Z,57.83
2023-04-16T01:44:34.722Z,57.87
2023-04-16T01:47:01.436Z,57.79
2023-04-16T01:49:29.039Z,58.87
2023-04-16T01:51:55.826Z,58.98
2023-04-16T01:54:22.358Z,59.81
2023-04-16T01:56:48.989Z,61.08
2023-04-16T01:59:15.589Z,61.71
2023-04-16T02:01:42.568Z,61.52
2023-04-16T02:04:10.258Z,62.30
2023-04-16T02:06:37.737Z,62.05
2023-04-16T02:09:04.357Z,60.75
2023-04-16T02:11:31.728Z,60.09
2023-04-16T02:13:58.509Z,60.64
2023-04-16T02:16:26.420Z,61.16
2023-04-16T02:18:58.502Z,61.38
2023-04-16T02:21:27.528Z,60.71
2023-04-16T02:23:54.195Z,60.07
2023-04-16T02:26:26.628Z,61.25
2023-04-16T02:28:55.576Z,61.43
2023-04-16T02:31:28.687Z,61.59
2023-04-16T02:33:57.079Z,61.79
2023-04-16T02:36:23.787Z,62.64
2023-04-16T02:38:50.457Z,61.81
2023-04-16T02:41:17.510Z,61.54
2023-04-16T02:43:44.335Z,62.12
2023-04-16T02:46:10.991Z,62.21
2023-04-16T02:48:37.689Z,62.43
2023-04-16T02:51:04.426Z,62.82
2023-04-16T02:53:31.032Z,62.74
2023-04-16T02:55:57.678Z,62.17
2023-04-16T02:58:25.967Z,62.43
2023-04-16T03:00:53.851Z,62.48
2023-04-16T03:03:21.802Z,62.90
2023-04-16T03:05:48.785Z,63.39
2023-04-16T03:08:16.332Z,62.92
2023-04-16T03:10:43.221Z,63.81
2023-04-16T03:13:09.868Z,63.56
2023-04-16T03:15:36.639Z,64.25
2023-04-16T03:18:03.391Z,64.10
2023-04-16T03:20:30.185Z,64.49
2023-04-16T03:22:57.277Z,64.49
2023-04-16T03:25:23.968Z,64.24
2023-04-16T03:27:51.253Z,63.82
2023-04-16T03:30:18.314Z,64.53
2023-04-16T03:32:45.132Z,64.52
2023-04-16T03:35:12.742Z,64.28
2023-04-16T03:37:39.500Z,63.66
2023-04-16T03:40:07.328Z,63.87
2023-04-16T03:42:34.339Z,63.40
2023-04-16T03:45:01.191Z,63.91
2023-04-16T03:47:28.156Z,63.35
2023-04-16T03:49:58.807Z,63.59
2023-04-16T03:52:25.458Z,63.46
2023-04-16T03:54:53.255Z,63.31
2023-04-16T03:57:25.292Z,63.83
2023-04-16T03:59:55.340Z,63.84
2023-04-16T04:02:22.930Z,63.68
2023-04-16T04:04:50.035Z,63.67
2023-04-16T04:07:17.506Z,63.97
2023-04-16T04:09:44.060Z,64.43
2023-04-16T04:12:10.827Z,64.39
2023-04-16T04:14:40.149Z,64.29
2023-04-16T04:17:08.359Z,64.44
2023-04-16T04:19:34.976Z,64.39
2023-04-16T04:22:02.623Z,64.31
2023-04-16T04:24:29.452Z,64.13
2023-04-16T04:26:57.489Z,65.39
2023-04-16T04:29:24.256Z,64.63
2023-04-16T04:31:51.311Z,65.01
2023-04-16T04:34:18.080Z,64.95
2023-04-16T04:36:44.903Z,65.82
2023-04-16T04:39:13.390Z,66.47
2023-04-16T04:41:42.901Z,67.15
2023-04-16T04:44:09.473Z,67.07
2023-04-16T04:46:36.192Z,67.93
2023-04-16T04:49:02.763Z,67.32
2023-04-16T04:51:31.717Z,67.40
2023-04-16T04:53:58.620Z,67.50
2023-04-16T04:56:25.594Z,68.06
2023-04-16T04:58:52.265Z,68.12
2023-04-16T05:01:20.140Z,68.34
2023-04-16T05:03:46.886Z,67.86
2023-04-16T05:06:13.589Z,68.53
2023-04-16T05:08:40.407Z,68.24
2023-04-16T05:11:07.121Z,68.77
2023-04-16T05:13:33.747Z,68.86
2023-04-16T05:16:00.291Z,68.46
2023-04-16T05:18:26.891Z,67.73
2023-04-16T05:20:53.655Z,68.00
2023-04-16T05:23:20.295Z,67.31
2023-04-16T05:25:46.938Z,67.46
2023-04-16T05:28:13.509Z,66.13
2023-04-16T05:30:40.217Z,66.29
2023-04-16T05:33:06.911Z,66.06
2023-04-16T05:35:34.412Z,65.92
2023-04-16T05:38:01.097Z,66.05
2023-04-16T05:40:27.762Z,65.69
2023-04-16T05:42:54.347Z,65.26
2023-04-16T05:45:20.892Z,65.44
2023-04-16T05:47:47.857Z,65.21
2023-04-16T05:50:14.626Z,65.18
2023-04-16T05:52:41.143Z,64.64
2023-04-16T05:55:08.036Z,64.83
2023-04-16T05:57:34.618Z,64.67
2023-04-16T06:00:01.274Z,64.23
2023-04-16T06:02:28.095Z,64.57
2023-04-16T06:04:54.810Z,64.17
2023-04-16T06:07:21.690Z,63.77
2023-04-16T06:09:48.279Z,62.51
2023-04-16T06:12:14.959Z,62.28
2023-04-16T06:14:41.543Z,62.52
2023-04-16T06:17:08.215Z,62.05
2023-04-16T06:19:34.831Z,61.67
2023-04-16T06:22:01.429Z,61.65
2023-04-16T06:24:28.169Z,61.27
2023-04-16T06:26:54.740Z,60.69
2023-04-16T06:29:24.156Z,60.90
2023-04-16T06:31:57.312Z,60.83
2023-04-16T06:34:24.015Z,60.45
2023-04-16T06:36:50.662Z,60.50
2023-04-16T06:39:17.360Z,60.35
2023-04-16T06:41:43.979Z,59.37
2023-04-16T06:44:10.702Z,59.19
2023-04-16T06:46:37.360Z,58.62
2023-04-16T06:49:04.040Z,57.73
2023-04-16T06:51:30.725Z,57.05
2023-04-16T06:53:57.370Z,57.51
2023-04-16T06:56:23.931Z,56.93
2023-04-16T06:58:51.523Z,56.16
2023-04-16T07:01:18.737Z,56.03
2023-04-16T07:03:45.648Z,55.67
2023-04-16T07:06:12.254Z,54.34
2023-04-16T07:08:38.830Z,53.06
2023-04-16T07:11:05.577Z,51.93
2023-04-16T07:13:32.189Z,50.48
2023-04-16T07:15:58.735Z,49.01
2023-04-16T07:18:25.660Z,47.41
2023-04-16T07:20:52.302Z,44.92
2023-04-16T07:23:18.962Z,44.34
2023-04-16T07:25:46.090Z,43.01
2023-04-16T07:28:12.912Z,42.17
2023-04-16T07:30:39.515Z,40.79
2023-04-16T07:33:06.243Z,39.85
2023-04-16T07:35:32.886Z,38.46
2023-04-16T07:37:59.582Z,37.45
2023-04-16T07:40:26.660Z,37.50
2023-04-16T07:42:53.326Z,35.95
2023-04-16T07:45:19.937Z,36.90
2023-04-16T07:47:46.655Z,37.20
2023-04-16T07:50:13.432Z,36.61
2023-04-16T07:52:42.393Z,35.92
2023-04-16T07:55:09.318Z,34.95
2023-04-16T07:57:36.470Z,34.99
2023-04-16T08:00:05.023Z,34.48
2023-04-16T08:02:39.759Z,34.17
2023-04-16T08:05:07.278Z,33.15
2023-04-16T08:07:34.790Z,32.34
2023-04-16T08:10:02.157Z,32.25
2023-04-16T08:12:29.505Z,32.00
2023-04-16T08:14:56.305Z,32.12
2023-04-16T08:17:23.017Z,31.96
2023-04-16T08:19:49.670Z,32.21
2023-04-16T08:22:16.859Z,31.95
2023-04-16T08:24:43.420Z,31.15
2023-04-16T08:27:18.579Z,31.84
2023-04-16T08:29:47.534Z,30.93
2023-04-16T08:32:14.201Z,30.77
2023-04-16T08:34:41.956Z,29.80
2023-04-16T08:37:09.079Z,30.14
2023-04-16T08:39:35.965Z,30.45
2023-04-16T08:42:05.632Z,29.69
2023-04-16T08:44:34.868Z,30.81
2023-04-16T08:47:02.361Z,30.83
2023-04-16T08:49:30.391Z,30.96
2023-04-16T08:51:57.407Z,30.19
2023-04-16T08:54:24.001Z,30.11
2023-04-16T08:56:51.554Z,30.43
2023-04-16T08:59:19.092Z,30.55
2023-04-16T09:01:46.842Z,30.23
2023-04-16T09:04:15.833Z,30.13
2023-04-16T09:06:43.317Z,29.74
2023-04-16T09:09:12.571Z,30.52
2023-04-16T09:11:39.822Z,30.57
2023-04-16T09:14:09.843Z,29.88
2023-04-16T09:16:36.969Z,29.54
2023-04-16T09:19:03.951Z,29.35
2023-04-16T09:21:31.043Z,29.36
2023-04-16T09:23:58.486Z,27.78
2023-04-16T09:26:25.938Z,26.63
2023-04-16T09:28:52.624Z,26.78
2023-04-16T09:31:19.592Z,26.13
2023-04-16T09:34:02.581Z,26.07
2023-04-16T09:36:29.719Z,25.89
2023-04-16T09:38:57.775Z,25.87
2023-04-16T09:41:29.097Z,24.23
2023-04-16T09:43:59.794Z,25.29
2023-04-16T09:46:36.284Z,24.98
2023-04-16T09:49:16.229Z,25.37
2023-04-16T09:51:44.317Z,23.96
2023-04-16T09:54:11.256Z,23.54
2023-04-16T09:56:45.872Z,23.59
2023-04-16T09:59:19.591Z,23.61
2023-04-16T10:01:59.740Z,22.59
2023-04-16T10:04:50.082Z,23.01
2023-04-16T10:07:17.696Z,22.03
2023-04-16T10:09:44.425Z,22.31
2023-04-16T10:12:12.819Z,21.48
2023-04-16T10:14:40.126Z,21.48
2023-04-16T10:17:07.868Z,21.50
2023-04-16T10:19:35.356Z,21.45
2023-04-16T10:22:03.249Z,20.27
2023-04-16T10:24:31.229Z,18.95
2023-04-16T10:26:58.492Z,18.93
2023-04-16T10:29:27.180Z,19.06
2023-04-16T10:31:55.588Z,19.54
2023-04-16T10:34:23.429Z,20.49
2023-04-16T10:36:52.947Z,20.06
2023-04-16T10:39:21.851Z,18.77
2023-04-16T10:41:49.432Z,18.34
2023-04-16T10:44:18.450Z,16.57
2023-04-16T10:46:50.886Z,17.26
2023-04-16T10:49:19.411Z,17.01
2023-04-16T10:51:57.644Z,16.42
2023-04-16T10:54:27.954Z,16.59
2023-04-16T10:56:57.793Z,17.39
2023-04-16T10:59:25.764Z,17.86
2023-04-16T11:01:55.776Z,16.53
2023-04-16T11:04:25.695Z,15.92
2023-04-16T11:07:13.989Z,16.61
2023-04-16T11:10:05.271Z,15.59
2023-04-16T11:12:38.063Z,16.12
2023-04-16T11:15:09.144Z,15.68
2023-04-16T11:17:48.038Z,14.34
2023-04-16T11:20:19.044Z,14.69
2023-04-16T11:22:50.964Z,13.86
2023-04-16T11:25:26.080Z,13.47
2023-04-16T11:27:53.430Z,12.90
2023-04-16T11:30:31.933Z,13.57
2023-04-16T11:32:58.667Z,15.02
2023-04-16T11:35:25.512Z,14.58
2023-04-16T11:37:56.518Z,14.93
2023-04-16T11:40:23.510Z,13.87
2023-04-16T11:42:50.264Z,13.30
2023-04-16T11:45:19.131Z,13.86
2023-04-16T11:47:47.783Z,12.82
2023-04-16T11:50:28.505Z,12.80
2023-04-16T11:52:57.627Z,11.82
2023-04-16T11:55:24.634Z,12.54
2023-04-16T11:57:52.164Z,14.53
2023-04-16T12:00:24.404Z,14.32
2023-04-16T12:02:53.708Z,13.25
2023-04-16T12:05:34.002Z,12.92
2023-04-16T12:08:03.589Z,13.83
2023-04-16T12:10:34.871Z,12.52
2023-04-16T12:13:12.702Z,12.07
2023-04-16T12:16:21.250Z,11.19
2023-04-16T12:19:02.970Z,11.23
2023-04-16T12:21:39.897Z,10.47
2023-04-16T12:24:07.968Z,9.61
2023-04-16T12:26:42.867Z,9.29
2023-04-16T12:29:27.532Z,8.95
2023-04-16T12:31:54.625Z,8.22
2023-04-16T12:34:21.823Z,8.82
2023-04-16T12:37:11.017Z,8.56
2023-04-16T12:39:37.605Z,8.51
2023-04-16T12:42:06.361Z,8.38
2023-04-16T12:44:33.080Z,8.05
2023-04-16T12:46:59.661Z,8.41
2023-04-16T12:49:26.300Z,8.71
2023-04-16T12:51:52.971Z,7.83
2023-04-16T12:54:19.598Z,8.06
2023-04-16T12:56:46.549Z,9.64
2023-04-16T12:59:13.136Z,11.47
2023-04-16T13:01:40.013Z,10.25
2023-04-16T13:04:07.632Z,10.97
2023-04-16T13:06:36.682Z,9.74
2023-04-16T13:09:04.254Z,10.85
2023-04-16T13:11:30.759Z,9.13
2023-04-16T13:13:57.290Z,9.16
2023-04-16T13:16:24.215Z,8.89
2023-04-16T13:18:51.018Z,8.63
2023-04-16T13:21:17.609Z,8.33
2023-04-16T13:23:44.286Z,7.80
2023-04-16T13:26:13.030Z,7.59
2023-04-16T13:28:39.756Z,6.75
2023-04-16T13:31:06.429Z,7.12
2023-04-16T13:33:33.055Z,7.16
2023-04-16T13:35:59.644Z,7.63
2023-04-16T13:38:26.504Z,6.96
2023-04-16T13:40:53.177Z,6.50
2023-04-16T13:43:19.822Z,6.65
2023-04-16T13:45:46.453Z,6.84
2023-04-16T13:48:13.090Z,6.19
2023-04-16T13:50:39.733Z,6.30
2023-04-16T13:53:06.420Z,6.50
2023-04-16T13:55:33.156Z,6.09
2023-04-16T13:58:00.138Z,6.67
2023-04-16T14:00:27.284Z,6.68
2023-04-16T14:02:54.026Z,6.50
2023-04-16T14:05:20.791Z,6.17
2023-04-16T14:07:47.404Z,6.37
2023-04-16T14:10:14.336Z,6.22
2023-04-16T14:12:41.290Z,6.13
2023-04-16T14:15:09.660Z,6.51
2023-04-16T14:17:39.383Z,7.75
2023-04-16T14:20:06.861Z,7.58
2023-04-16T14:22:33.687Z,7.11
2023-04-16T14:25:01.094Z,7.02
2023-04-16T14:27:28.772Z,6.59
2023-04-16T14:29:55.362Z,6.38
2023-04-16T14:32:22.082Z,5.84
2023-04-16T14:34:48.689Z,6.07
2023-04-16T14:37:16.758Z,6.60
2023-04-16T14:39:43.631Z,6.70
2023-04-16T14:42:10.678Z,6.98
2023-04-16T14:44:37.434Z,7.79
2023-04-16T14:47:04.149Z,7.21
2023-04-16T14:49:30.689Z,7.83
2023-04-16T14:51:57.600Z,8.14
2023-04-16T14:54:24.264Z,10.45
2023-04-16T14:56:51.097Z,10.24
2023-04-16T14:59:17.779Z,10.93
2023-04-16T15:01:46.294Z,10.49
2023-04-16T15:04:13.109Z,10.09
2023-04-16T15:06:39.820Z,10.72
2023-04-16T15:09:07.516Z,11.12
2023-04-16T15:11:34.241Z,11.08
2023-04-16T15:14:01.280Z,11.71
2023-04-16T15:16:27.965Z,13.04
2023-04-16T15:18:54.611Z,13.77
2023-04-16T15:21:21.145Z,15.09
2023-04-16T15:23:47.827Z,15.63
2023-04-16T15:26:14.534Z,15.75
2023-04-16T15:28:41.317Z,15.81
2023-04-16T15:31:08.497Z,14.97
2023-04-16T15:33:35.263Z,14.75
2023-04-16T15:36:01.984Z,14.75
2023-04-16T15:38:30.638Z,14.08
2023-04-16T15:41:00.704Z,13.83
2023-04-16T15:43:28.931Z,13.88
2023-04-16T15:45:56.377Z,15.11
2023-04-16T15:48:23.891Z,15.64
2023-04-16T15:50:51.298Z,15.73
2023-04-16T15:53:18.152Z,15.36
2023-04-16T15:55:44.907Z,15.49
2023-04-16T15:58:12.596Z,15.81
2023-04-16T16:00:39.198Z,16.25
2023-04-16T16:03:06.067Z,17.33
2023-04-16T16:05:32.887Z,18.44
2023-04-16T16:08:01.717Z,19.65
2023-04-16T16:10:28.487Z,19.61
2023-04-16T16:12:57.074Z,19.53
2023-04-16T16:15:23.718Z,20.62
2023-04-16T16:17:52.767Z,21.08
2023-04-16T16:20:19.713Z,20.71
2023-04-16T16:22:48.255Z,21.66
2023-04-16T16:25:14.930Z,21.39
2023-04-16T16:27:42.131Z,22.16
2023-04-16T16:30:09.078Z,22.19
2023-04-16T16:32:35.965Z,22.28
2023-04-16T16:35:02.772Z,21.72
2023-04-16T16:37:29.372Z,21.49
2023-04-16T16:39:55.938Z,21.54
2023-04-16T16:42:22.492Z,20.80
2023-04-16T16:44:49.190Z,20.29
2023-04-16T16:47:15.823Z,20.36
2023-04-16T16:49:42.368Z,21.53
2023-04-16T16:52:09.052Z,22.13
2023-04-16T16:54:36.041Z,22.08
2023-04-16T16:57:03.265Z,23.03
2023-04-16T16:59:29.783Z,23.11
2023-04-16T17:01:56.561Z,23.18
2023-04-16T17:04:23.688Z,23.99
2023-04-16T17:06:50.846Z,23.71
2023-04-16T17:09:17.965Z,23.94
2023-04-16T17:11:44.792Z,24.63
2023-04-16T17:14:11.431Z,24.38
2023-04-16T17:16:38.143Z,24.55
2023-04-16T17:19:04.789Z,24.99
2023-04-16T17:21:34.909Z,25.46
2023-04-16T17:24:01.458Z,25.14
2023-04-16T17:26:28.035Z,24.98
2023-04-16T17:28:56.657Z,25.68
2023-04-16T17:31:25.007Z,26.28
2023-04-16T17:33:53.710Z,26.37
2023-04-16T17:36:22.807Z,26.87
2023-04-16T17:38:50.612Z,27.41
2023-04-16T17:41:19.573Z,27.30
2023-04-16T17:43:50.245Z,27.42
2023-04-16T17:46:17.102Z,26.88
2023-04-16T17:48:48.738Z,27.60
2023-04-16T17:51:16.464Z,27.57
2023-04-16T17:53:43.440Z,27.70
2023-04-16T17:56:11.025Z,27.18
2023-04-16T17:58:37.701Z,27.49
2023-04-16T18:01:04.749Z,27.50
2023-04-16T18:03:32.888Z,28.00
2023-04-16T18:06:00.094Z,28.19
2023-04-16T18:08:27.640Z,28.60
2023-04-16T18:10:55.341Z,28.51
2023-04-16T18:13:22.053Z,28.68
2023-04-16T18:15:48.718Z,28.86
2023-04-16T18:18:15.625Z,29.04
2023-04-16T18:20:42.300Z,28.96
2023-04-16T18:23:08.883Z,28.93
2023-04-16T18:25:35.880Z,28.99
2023-04-16T18:28:03.827Z,29.29
2023-04-16T18:30:30.680Z,29.03
2023-04-16T18:33:16.557Z,29.09
2023-04-16T18:35:44.074Z,29.25
2023-04-16T18:38:10.921Z,29.21
2023-04-16T18:40:37.552Z,28.98
2023-04-16T18:43:04.269Z,29.09
2023-04-16T18:45:34.108Z,29.40
2023-04-16T18:48:03.496Z,29.10
2023-04-16T18:50:30.156Z,29.28
2023-04-16T18:52:56.868Z,29.33
2023-04-16T18:55:23.752Z,29.22
2023-04-16T18:57:50.479Z,30.55
2023-04-16T19:00:17.220Z,31.02
2023-04-16T19:02:43.901Z,30.11
2023-04-16T19:05:10.764Z,31.16
2023-04-16T19:07:37.863Z,29.29
2023-04-16T19:10:05.541Z,30.85
2023-04-16T19:12:32.361Z,28.48
2023-04-16T19:14:59.326Z,29.37
2023-04-16T19:17:26.639Z,29.88
2023-04-16T19:19:53.532Z,30.38
2023-04-16T19:22:20.107Z,30.04
2023-04-16T19:24:46.921Z,29.19
2023-04-16T19:27:13.575Z,29.02
2023-04-16T19:29:42.741Z,28.85
2023-04-16T19:32:09.468Z,28.91
2023-04-16T19:34:36.072Z,28.96
2023-04-16T19:37:02.688Z,29.33
2023-04-16T19:39:29.290Z,28.96
2023-04-16T19:41:56.237Z,29.18
2023-04-16T19:44:23.242Z,29.19
2023-04-16T19:46:49.968Z,28.99
2023-04-16T19:49:16.631Z,29.19
2023-04-16T19:51:43.168Z,29.19
2023-04-16T19:54:09.819Z,29.36
2023-04-16T19:56:36.664Z,29.23
2023-04-16T19:59:03.378Z,29.73
2023-04-16T20:01:33.103Z,29.83
2023-04-16T20:04:00.726Z,29.80
2023-04-16T20:06:27.702Z,29.95
2023-04-16T20:08:54.379Z,30.22
2023-04-16T20:11:21.338Z,30.12
2023-04-16T20:13:48.650Z,30.09
2023-04-16T20:16:15.586Z,30.52
2023-04-16T20:18:42.598Z,30.66
2023-04-16T20:21:10.477Z,30.52
2023-04-16T20:23:37.197Z,31.09
2023-04-16T20:26:04.418Z,30.92
2023-04-16T20:28:31.118Z,31.27
2023-04-16T20:30:57.957Z,31.67
2023-04-16T20:33:24.619Z,31.85
2023-04-16T20:35:52.173Z,31.99
2023-04-16T20:38:23.784Z,32.52
2023-04-16T20:41:06.376Z,32.26
2023-04-16T20:43:38.260Z,32.41
2023-04-16T20:46:05.161Z,32.83
2023-04-16T20:48:31.938Z,32.81
2023-04-16T20:51:03.703Z,33.16
2023-04-16T20:53:33.654Z,33.13
2023-04-16T20:56:03.387Z,34.03
2023-04-16T20:58:30.167Z,34.09
2023-04-16T21:00:57.820Z,34.40
2023-04-16T21:03:25.032Z,34.48
2023-04-16T21:05:54.281Z,34.95
2023-04-16T21:08:22.656Z,35.93
2023-04-16T21:10:50.470Z,36.02
2023-04-16T21:13:17.156Z,35.87
2023-04-16T21:15:44.818Z,36.23
2023-04-16T21:18:11.755Z,36.10
2023-04-16T21:20:39.156Z,36.63
2023-04-16T21:23:06.469Z,36.36
2023-04-16T21:25:36.006Z,37.02
2023-04-16T21:28:02.809Z,37.67
2023-04-16T21:30:29.447Z,38.18
2023-04-16T21:32:56.206Z,38.36
2023-04-16T21:35:22.835Z,38.13
2023-04-16T21:37:49.493Z,38.60
2023-04-16T21:40:16.291Z,38.61
2023-04-16T21:42:42.884Z,38.54
2023-04-16T21:45:10.411Z,38.78
2023-04-16T21:47:37.503Z,38.33
2023-04-16T21:50:04.622Z,38.15
2023-04-16T21:52:32.860Z,37.51
2023-04-16T21:55:00.259Z,37.58
2023-04-16T21:57:26.898Z,37.54
2023-04-16T21:59:53.549Z,37.35
2023-04-16T22:02:20.458Z,37.68
2023-04-16T22:04:47.316Z,37.80
2023-04-16T22:07:16.729Z,38.05
2023-04-16T22:09:43.691Z,37.90
2023-04-16T22:12:10.439Z,38.43
2023-04-16T22:14:42.126Z,38.40
2023-04-16T22:17:12.955Z,38.41
2023-04-16T22:19:39.617Z,38.26
2023-04-16T22:22:06.225Z,38.77
2023-04-16T22:24:33.169Z,39.13
2023-04-16T22:27:00.124Z,39.23
2023-04-16T22:29:26.841Z,39.55
2023-04-16T22:31:53.432Z,39.25
2023-04-16T22:34:20.233Z,39.57
2023-04-16T22:36:47.514Z,39.54
2023-04-16T22:39:14.582Z,39.70
2023-04-16T22:41:41.460Z,39.84
2023-04-16T22:44:08.094Z,39.89
2023-04-16T22:46:35.033Z,40.32
2023-04-16T22:49:01.852Z,40.50
2023-04-16T22:51:29.337Z,40.54
2023-04-16T22:53:56.322Z,40.72
2023-04-16T22:56:28.424Z,41.17
2023-04-16T22:58:54.958Z,41.31
2023-04-16T23:01:21.920Z,41.40
2023-04-16T23:03:48.927Z,41.50
2023-04-16T23:06:15.911Z,41.26
2023-04-16T23:08:42.481Z,41.76
2023-04-16T23:11:09.099Z,42.34
2023-04-16T23:13:36.201Z,42.66
2023-04-16T23:16:02.950Z,42.67
2023-04-16T23:18:29.633Z,42.66
2023-04-16T23:20:56.426Z,42.78
2023-04-16T23:23:23.001Z,42.84
2023-04-16T23:25:53.330Z,43.16
2023-04-16T23:28:20.590Z,43.05
2023-04-16T23:30:47.175Z,43.48
2023-04-16T23:33:13.800Z,43.48
2023-04-16T23:35:40.500Z,43.27
2023-04-16T23:38:07.251Z,43.41
2023-04-16T23:40:33.861Z,43.23
2023-04-16T23:43:00.429Z,43.61
2023-04-16T23:45:27.074Z,43.63
2023-04-16T23:47:53.719Z,43.60
2023-04-16T23:50:20.381Z,43.85
2023-04-16T23:52:47.014Z,43.54
2023-04-16T23:55:13.616Z,43.86
2023-04-16T23:57:40.297Z,43.42
